Terminal Aerodrome Forecast
Issued by NWS

Home | Current Version | Previous Version | Text Only | Print | Product List | Glossary On
Versions: 1 2 3 4 5 6 7 8 9 10 11
000
FTUS46 KOTX 302339
TAFCOE
TAF
KCOE 302339Z 3100/3124 19012G20KT P6SM FEW070
     FM310300 19009KT P6SM SKC
     FM311900 24010G16KT P6SM FEW250
      AMD LTD TO CLD VIS AND WIND=

USA.gov is the U.S. government's official web portal to all federal, state and local government web resources and services.